Terminal Aerodrome Forecast
Issued by NWS Sioux Falls, SD

Home | Current Version | Previous Version | Graphics & Text | Print | Product List | Glossary On
Versions: 1 2 3 4 5 6 7 8 9 10 11 12 13 14 15 16 17 18 19
000
FTUS43 KFSD 241744
TAFHON
TAF
KHON 241744Z 2418/2518 06008KT 6SM BR OVC015
      TEMPO 2418/2421 4SM -RA BR SCT009 OVC025
     FM242100 07008KT P6SM OVC022
     FM250100 04005KT P6SM OVC015
     FM250500 02005KT P6SM OVC015
     FM251500 01008KT P6SM OVC025=

USA.gov is the U.S. government's official web portal to all federal, state and local government web resources and services.